Time;durP1;ratioP1;P1;durP2;ratioP2;P2;SDS_P1;SDS_P2;PMS_P1;PMS_P2;Temp;Humidity;BMP_temperature;BMP_pressure;BME280_temperature;BME280_humidity;BME280_pressure;Samples;Min_cycle;Max_cycle;Signal;HPM_P1;HPM_P2
2023/06/01 00:02:01;;;;;;;3.70;2.20;;;;;;;11.40;98.25;101134.19;5081551;28;20499;-81
2023/06/01 00:04:28;;;;;;;3.00;2.03;;;;;;;11.37;98.86;101136.91;5070376;28;20040;-80
2023/06/01 00:06:55;;;;;;;3.25;2.25;;;;;;;11.30;100.00;101137.88;5097541;28;20595;-80
2023/06/01 00:09:21;;;;;;;3.03;2.42;;;;;;;11.27;99.10;101140.59;5101585;27;20035;-81
2023/06/01 00:11:48;;;;;;;4.35;2.20;;;;;;;11.22;100.00;101140.66;5074238;28;20098;-82
2023/06/01 00:14:15;;;;;;;2.75;2.00;;;;;;;11.22;100.00;101139.78;5047651;28;20040;-82
2023/06/01 00:16:42;;;;;;;4.07;2.50;;;;;;;11.21;100.00;101141.56;5071369;28;20416;-83
2023/06/01 00:19:09;;;;;;;3.50;2.45;;;;;;;11.17;100.00;101145.13;5064980;28;20040;-82
2023/06/01 00:21:36;;;;;;;3.10;2.13;;;;;;;11.12;100.00;101140.81;5067800;28;20130;-82
2023/06/01 00:24:03;;;;;;;3.33;2.40;;;;;;;11.08;100.00;101144.41;5062910;28;20039;-80
2023/06/01 00:26:31;;;;;;;4.00;2.45;;;;;;;10.98;100.00;101144.53;5057880;28;20631;-80
2023/06/01 00:28:59;;;;;;;3.22;2.20;;;;;;;10.97;100.00;101132.22;5070246;28;20421;-82
2023/06/01 00:31:26;;;;;;;3.20;2.30;;;;;;;10.93;100.00;101134.91;5070892;28;20049;-81
2023/06/01 00:33:53;;;;;;;3.15;2.58;;;;;;;10.84;100.00;101142.97;5089070;27;20483;-81
2023/06/01 00:36:20;;;;;;;4.55;2.40;;;;;;;10.81;100.00;101140.38;5097280;28;20081;-82
2023/06/01 00:38:47;;;;;;;7.95;3.28;;;;;;;10.68;100.00;101143.19;5091181;28;20032;-79
2023/06/01 00:41:14;;;;;;;3.67;2.47;;;;;;;10.71;100.00;101142.28;5066471;28;20414;-82
2023/06/01 00:43:40;;;;;;;3.08;2.20;;;;;;;10.64;100.00;101130.03;5051567;28;20028;-82
2023/06/01 00:46:08;;;;;;;2.85;2.15;;;;;;;10.58;100.00;101136.25;5087204;28;20131;-79
2023/06/01 00:48:35;;;;;;;2.70;2.28;;;;;;;10.56;100.00;101142.47;5086342;28;20119;-81
2023/06/01 00:51:02;;;;;;;3.80;2.58;;;;;;;10.55;100.00;101136.31;5073545;28;20067;-82
2023/06/01 00:53:29;;;;;;;3.10;2.53;;;;;;;10.54;100.00;101137.22;5087027;28;20115;-80
2023/06/01 00:55:56;;;;;;;4.13;2.30;;;;;;;10.49;100.00;101136.38;5055165;28;20132;-82
2023/06/01 00:58:23;;;;;;;3.72;2.60;;;;;;;10.33;100.00;101135.69;5087342;28;20035;-82
2023/06/01 01:00:53;;;;;;;3.45;2.50;;;;;;;10.30;100.00;101130.47;5056500;28;20040;-80
2023/06/01 01:03:21;;;;;;;3.20;2.42;;;;;;;10.27;100.00;101135.78;5055689;28;20035;-81
2023/06/01 01:05:50;;;;;;;5.03;3.15;;;;;;;10.35;100.00;101130.41;5072179;28;20521;-79
2023/06/01 01:08:39;;;;;;;4.40;2.42;;;;;;;10.25;100.00;101132.25;5067860;28;20028;-81
2023/06/01 01:11:23;;;;;;;3.03;2.50;;;;;;;10.08;100.00;101129.78;5090578;28;20074;-81
2023/06/01 01:13:55;;;;;;;4.38;2.30;;;;;;;10.00;100.00;101136.91;5049588;28;20404;-81
2023/06/01 01:16:45;;;;;;;4.20;2.35;;;;;;;9.93;100.00;101129.97;5055595;28;20047;-80
2023/06/01 01:19:42;;;;;;;4.13;2.55;;;;;;;9.95;100.00;101128.19;5063711;28;20043;-82
2023/06/01 01:22:38;;;;;;;3.58;2.55;;;;;;;9.90;100.00;101122.06;5081538;28;20046;-81
2023/06/01 01:25:21;;;;;;;9.02;3.17;;;;;;;9.97;100.00;101121.13;5106274;28;20055;-82
2023/06/01 01:28:08;;;;;;;4.03;2.47;;;;;;;9.84;100.00;101124.78;5062797;28;20138;-80
2023/06/01 01:30:37;;;;;;;3.70;2.40;;;;;;;9.79;100.00;101124.81;5056929;28;20087;-81
2023/06/01 01:33:04;;;;;;;5.18;2.90;;;;;;;9.80;100.00;101118.66;5052581;28;20193;-80
2023/06/01 01:35:32;;;;;;;6.13;2.60;;;;;;;9.79;100.00;101127.47;5111911;28;20032;-80
2023/06/01 01:37:58;;;;;;;5.73;2.97;;;;;;;9.79;100.00;101119.53;5063519;28;20043;-81
2023/06/01 01:40:25;;;;;;;6.63;3.17;;;;;;;9.73;100.00;101126.63;5073533;28;20078;-81
2023/06/01 01:42:52;;;;;;;5.30;2.40;;;;;;;9.71;100.00;101121.38;5071446;28;20718;-80
2023/06/01 01:45:20;;;;;;;3.97;2.83;;;;;;;9.77;100.00;101125.72;5081502;28;20046;-79
2023/06/01 01:48:07;;;;;;;6.43;3.10;;;;;;;9.79;100.00;101131.88;5089556;28;20039;-81
2023/06/01 01:50:38;;;;;;;4.20;2.80;;;;;;;9.67;100.00;101118.78;5061353;28;20259;-81
2023/06/01 01:53:06;;;;;;;4.60;3.20;;;;;;;9.67;100.00;101116.13;5073684;28;20370;-79
2023/06/01 01:55:33;;;;;;;4.27;2.83;;;;;;;9.71;100.00;101115.22;5063122;28;20036;-81
2023/06/01 01:58:01;;;;;;;4.57;3.13;;;;;;;9.71;100.00;101110.81;5083562;28;20036;-81
2023/06/01 02:00:31;;;;;;;5.03;2.88;;;;;;;9.62;100.00;101113.56;5050154;28;20489;-79
2023/06/01 02:02:59;;;;;;;4.97;2.90;;;;;;;9.66;100.00;101106.47;5089105;28;20150;-81
2023/06/01 02:05:26;;;;;;;5.73;4.13;;;;;;;9.68;100.00;101112.63;5063631;28;20135;-80
2023/06/01 02:07:52;;;;;;;3.30;2.50;;;;;;;9.49;100.00;101111.91;5104524;28;20043;-79
2023/06/01 02:10:19;;;;;;;5.10;3.50;;;;;;;9.43;100.00;101110.22;5066085;28;20466;-80
2023/06/01 02:12:46;;;;;;;4.60;2.77;;;;;;;9.48;100.00;101104.88;5072481;28;20089;-80
2023/06/01 02:16:02;;;;;;;6.47;3.10;;;;;;;9.45;100.00;101108.44;5097940;28;20261;-80
2023/06/01 02:27:41;;;;;;;6.07;3.23;;;;;;;9.20;100.00;101109.53;5068596;28;20040;-81
2023/06/01 02:30:50;;;;;;;4.03;2.90;;;;;;;9.13;100.00;101097.25;5060097;28;20076;-81
2023/06/01 02:38:19;;;;;;;4.90;2.93;;;;;;;9.03;100.00;101099.97;5097237;28;20024;-81
2023/06/01 02:42:01;;;;;;;4.97;3.13;;;;;;;9.05;100.00;101094.69;5092900;28;20050;-81
2023/06/01 02:46:17;;;;;;;6.93;4.33;;;;;;;9.03;100.00;101089.44;5117290;28;20031;-81
2023/06/01 02:49:38;;;;;;;9.13;4.13;;;;;;;8.98;100.00;101080.66;5056842;28;20054;-83
2023/06/01 02:52:52;;;;;;;8.77;3.47;;;;;;;8.98;100.00;101072.75;5109795;28;20115;-81
2023/06/01 02:55:28;;;;;;;4.93;3.63;;;;;;;8.96;100.00;101076.31;5083779;28;20050;-83
2023/06/01 02:57:55;;;;;;;6.90;3.90;;;;;;;9.05;100.00;101078.88;5055121;28;20211;-81
2023/06/01 03:00:21;;;;;;;4.77;3.20;;;;;;;9.10;100.00;101086.75;5065582;28;20037;-81
2023/06/01 03:02:48;;;;;;;5.27;3.70;;;;;;;9.01;100.00;101078.03;5074834;28;20416;-82
2023/06/01 03:05:16;;;;;;;5.17;3.33;;;;;;;9.05;100.00;101084.16;5083674;28;20553;-81
2023/06/01 03:07:44;;;;;;;6.00;3.43;;;;;;;9.17;100.00;101081.44;5053106;28;20178;-81
2023/06/01 03:10:12;;;;;;;6.13;3.47;;;;;;;9.17;100.00;101078.78;5059962;28;20043;-83
2023/06/01 03:12:39;;;;;;;7.43;3.40;;;;;;;9.20;100.00;101078.75;5074628;28;20055;-81
2023/06/01 03:15:06;;;;;;;9.87;4.70;;;;;;;9.33;100.00;101084.78;5088708;28;20040;-82
2023/06/01 03:17:33;;;;;;;8.10;4.27;;;;;;;9.39;100.00;101074.19;5088812;28;20669;-82
2023/06/01 03:20:00;;;;;;;7.20;3.50;;;;;;;9.46;100.00;101075.03;5056247;28;20476;-82
2023/06/01 03:22:27;;;;;;;5.97;3.87;;;;;;;9.55;100.00;101069.66;5084361;28;20433;-81
2023/06/01 03:24:54;;;;;;;8.07;4.07;;;;;;;9.63;100.00;101072.22;5076393;28;20111;-82
2023/06/01 03:27:21;;;;;;;5.87;4.43;;;;;;;9.71;100.00;101065.97;5096901;28;20031;-82
2023/06/01 03:29:48;;;;;;;5.90;4.07;;;;;;;9.85;100.00;101063.19;5083563;28;20146;-82
2023/06/01 03:32:15;;;;;;;8.70;4.20;;;;;;;9.72;100.00;101058.94;5093866;28;20103;-82
2023/06/01 03:34:41;;;;;;;6.80;4.13;;;;;;;9.85;100.00;101053.50;5077766;28;20028;-81
2023/06/01 03:37:08;;;;;;;10.38;4.20;;;;;;;9.84;100.00;101059.69;5073653;28;20066;-82
2023/06/01 03:39:35;;;;;;;6.27;3.80;;;;;;;10.01;100.00;101069.19;5063869;28;20119;-82
2023/06/01 03:42:02;;;;;;;6.20;3.83;;;;;;;9.95;100.00;101072.75;5057526;28;20050;-82
2023/06/01 03:44:29;;;;;;;11.27;4.88;;;;;;;10.01;100.00;101070.06;5059743;28;20071;-82
2023/06/01 03:46:55;;;;;;;12.17;5.57;;;;;;;10.21;100.00;101075.09;5064884;28;20389;-83
2023/06/01 03:49:23;;;;;;;7.65;4.15;;;;;;;10.16;100.00;101072.47;5091488;28;20569;-82
2023/06/01 03:51:50;;;;;;;8.68;4.22;;;;;;;10.23;100.00;101083.00;5061091;28;20111;-83
2023/06/01 03:54:17;;;;;;;6.65;4.32;;;;;;;10.29;100.00;101086.47;5048844;28;20068;-82
2023/06/01 03:56:43;;;;;;;7.85;4.60;;;;;;;10.55;100.00;101074.69;5090205;28;20059;-83
2023/06/01 03:59:10;;;;;;;6.60;4.38;;;;;;;10.54;100.00;101079.09;5073276;28;20078;-82
2023/06/01 04:01:39;;;;;;;8.63;5.10;;;;;;;10.60;100.00;101075.50;5092177;28;20517;-83
2023/06/01 04:04:08;;;;;;;8.18;4.82;;;;;;;10.70;100.00;101072.69;5057024;28;20148;-82
2023/06/01 04:06:36;;;;;;;8.05;4.72;;;;;;;10.82;100.00;101073.41;5067505;28;20033;-83
2023/06/01 04:09:06;;;;;;;7.65;4.35;;;;;;;10.93;100.00;101069.72;5053767;28;20402;-82
2023/06/01 04:11:33;;;;;;;8.93;4.70;;;;;;;11.05;100.00;101070.41;5053537;28;20307;-83
2023/06/01 04:14:00;;;;;;;9.50;4.82;;;;;;;11.20;100.00;101072.81;5075845;28;20036;-82
2023/06/01 04:16:27;;;;;;;11.27;4.63;;;;;;;11.24;100.00;101072.72;5050065;28;20489;-82
2023/06/01 04:18:54;;;;;;;6.38;4.20;;;;;;;11.32;100.00;101077.88;5052638;28;20514;-82
2023/06/01 04:21:22;;;;;;;8.70;5.55;;;;;;;11.43;100.00;101069.75;5072068;28;20066;-83
2023/06/01 04:23:50;;;;;;;9.38;5.15;;;;;;;11.54;100.00;101065.19;5064406;28;20078;-83
2023/06/01 04:26:18;;;;;;;10.02;5.00;;;;;;;11.63;100.00;101077.38;5047185;28;20040;-83
2023/06/01 04:28:45;;;;;;;9.57;4.82;;;;;;;11.68;100.00;101079.00;5058574;28;20515;-83
2023/06/01 04:31:16;;;;;;;8.70;5.10;;;;;;;11.74;100.00;101075.38;5058398;28;20119;-83
2023/06/01 04:33:52;;;;;;;9.98;5.22;;;;;;;11.92;100.00;101084.78;5071489;28;20066;-82
2023/06/01 04:36:21;;;;;;;11.68;4.75;;;;;;;12.01;100.00;101074.88;5059441;28;20054;-83
2023/06/01 04:38:52;;;;;;;9.80;4.90;;;;;;;12.04;100.00;101081.91;5065043;28;20102;-83
2023/06/01 04:41:21;;;;;;;9.88;4.63;;;;;;;12.09;100.00;101083.53;5062034;28;20044;-82
2023/06/01 04:43:52;;;;;;;9.52;5.20;;;;;;;12.29;100.00;101075.22;5061229;28;20047;-82
2023/06/01 04:46:24;;;;;;;11.23;5.25;;;;;;;12.23;100.00;101085.06;5077063;28;20469;-81
2023/06/01 04:48:52;;;;;;;10.05;5.75;;;;;;;12.35;100.00;101076.84;5073300;28;20044;-81
2023/06/01 04:51:19;;;;;;;7.57;4.88;;;;;;;12.46;100.00;101072.22;5084155;28;20501;-81
2023/06/01 04:53:49;;;;;;;11.88;5.53;;;;;;;12.47;100.00;101076.59;5048888;28;20486;-82
2023/06/01 04:56:17;;;;;;;11.30;5.00;;;;;;;12.60;100.00;101083.34;5054531;28;20139;-82
2023/06/01 04:58:47;;;;;;;10.65;4.90;;;;;;;12.70;100.00;101075.22;5068117;27;20037;-82
2023/06/01 05:01:15;;;;;;;11.15;4.78;;;;;;;12.86;100.00;101077.50;5080110;28;20118;-81
2023/06/01 05:03:43;;;;;;;11.00;5.57;;;;;;;13.06;100.00;101073.50;5050137;28;20032;-80
2023/06/01 05:06:11;;;;;;;11.25;4.93;;;;;;;12.95;100.00;101071.09;5051180;28;20044;-81
2023/06/01 05:08:39;;;;;;;10.70;5.22;;;;;;;12.97;100.00;101074.59;5064519;28;20040;-82
2023/06/01 05:11:06;;;;;;;10.32;5.97;;;;;;;13.00;100.00;101071.84;5074930;28;20123;-81
2023/06/01 05:13:35;;;;;;;11.63;6.03;;;;;;;13.12;100.00;101083.97;5081600;28;20047;-81
2023/06/01 05:16:06;;;;;;;8.98;5.25;;;;;;;12.93;100.00;101068.47;5059055;28;20067;-81
2023/06/01 05:18:33;;;;;;;10.77;4.70;;;;;;;13.07;100.00;101076.09;5054733;28;20051;-82
2023/06/01 05:21:00;;;;;;;13.30;6.18;;;;;;;13.19;100.00;101074.91;5073959;28;20039;-80
2023/06/01 05:23:28;;;;;;;13.63;5.50;;;;;;;13.25;100.00;101074.81;5078436;28;20055;-80
2023/06/01 05:26:01;;;;;;;10.25;4.80;;;;;;;13.22;100.00;101074.91;5063577;28;20039;-80
2023/06/01 05:28:32;;;;;;;7.25;4.93;;;;;;;13.36;100.00;101067.44;5064151;28;20044;-81
2023/06/01 05:31:02;;;;;;;11.20;5.07;;;;;;;13.42;100.00;101075.25;5066435;28;20129;-80
2023/06/01 05:33:29;;;;;;;17.73;6.43;;;;;;;13.55;100.00;101073.16;5066454;28;20267;-82
2023/06/01 05:35:56;;;;;;;9.52;5.18;;;;;;;13.53;100.00;101069.66;5071938;28;20489;-81
2023/06/01 05:38:23;;;;;;;6.90;4.53;;;;;;;13.59;97.02;101073.94;5074344;28;20040;-81
2023/06/01 05:40:50;;;;;;;9.25;5.32;;;;;;;13.63;97.77;101084.47;5067836;28;20046;-79
2023/06/01 05:43:16;;;;;;;15.00;6.72;;;;;;;13.50;96.63;101090.97;5087959;28;20047;-82
2023/06/01 05:45:43;;;;;;;12.50;5.32;;;;;;;13.44;92.98;101081.38;5062040;28;20139;-82
2023/06/01 05:48:13;;;;;;;9.30;4.78;;;;;;;13.47;95.15;101086.63;5066212;28;20036;-80
2023/06/01 05:50:41;;;;;;;8.70;4.78;;;;;;;13.58;95.29;101093.44;5073504;28;20044;-81
2023/06/01 05:53:09;;;;;;;9.10;4.95;;;;;;;13.58;93.96;101090.78;5116125;27;20044;-81
2023/06/01 05:55:36;;;;;;;9.90;4.55;;;;;;;13.59;92.48;101088.09;5057312;28;20318;-81
2023/06/01 05:58:02;;;;;;;8.65;4.30;;;;;;;13.61;94.27;101090.69;5094591;28;20042;-81
2023/06/01 06:00:30;;;;;;;10.13;4.63;;;;;;;13.68;91.54;101094.94;5071632;28;20028;-81
2023/06/01 06:02:56;;;;;;;9.98;4.60;;;;;;;13.74;90.97;101085.03;5067900;28;20385;-81
2023/06/01 06:05:23;;;;;;;9.23;4.55;;;;;;;13.69;90.42;101092.25;5078603;28;20039;-81
2023/06/01 06:07:50;;;;;;;8.20;4.57;;;;;;;13.80;89.94;101089.31;5080789;28;20036;-81
2023/06/01 06:10:17;;;;;;;8.02;4.72;;;;;;;13.83;89.62;101083.91;5083224;28;20029;-80
2023/06/01 06:12:44;;;;;;;8.20;4.03;;;;;;;13.85;88.89;101089.19;5069386;28;20516;-80
2023/06/01 06:15:10;;;;;;;10.98;5.20;;;;;;;13.45;88.01;101085.81;5086794;28;20035;-81
2023/06/01 06:17:37;;;;;;;8.32;5.03;;;;;;;13.51;88.80;101082.97;5084703;28;20036;-82
2023/06/01 06:20:07;;;;;;;8.18;5.00;;;;;;;13.59;87.87;101087.22;5068150;27;20048;-80
2023/06/01 06:22:34;;;;;;;8.15;3.97;;;;;;;13.66;87.53;101086.16;5082928;28;20388;-80
2023/06/01 06:25:01;;;;;;;9.05;4.70;;;;;;;13.55;88.65;101083.78;5086254;28;20028;-80
2023/06/01 06:27:28;;;;;;;8.32;4.45;;;;;;;13.67;88.17;101070.19;5069722;28;20464;-81
2023/06/01 06:29:55;;;;;;;9.85;4.80;;;;;;;13.88;84.83;101079.38;5083288;28;20063;-80
2023/06/01 06:32:22;;;;;;;10.10;4.95;;;;;;;14.21;84.53;101071.34;5066501;28;20043;-82
2023/06/01 06:34:49;;;;;;;6.47;4.18;;;;;;;14.41;81.40;101076.97;5054110;28;20051;-80
2023/06/01 06:37:16;;;;;;;9.57;3.70;;;;;;;14.55;80.57;101077.47;5070320;28;20481;-81
2023/06/01 06:39:43;;;;;;;58.47;11.10;;;;;;;14.62;79.31;101071.00;5072371;28;20142;-80
2023/06/01 06:42:10;;;;;;;15.88;5.25;;;;;;;14.25;80.09;101065.03;5057219;28;20071;-80
2023/06/01 06:44:37;;;;;;;6.55;3.85;;;;;;;14.46;82.55;101071.50;5059792;28;20032;-80
2023/06/01 06:47:04;;;;;;;7.80;4.60;;;;;;;14.57;81.54;101072.09;5076775;28;20066;-82
2023/06/01 06:49:31;;;;;;;7.90;3.83;;;;;;;14.52;82.07;101069.56;5069742;28;20131;-81
2023/06/01 06:51:57;;;;;;;9.25;4.20;;;;;;;14.65;81.84;101067.41;5062710;28;20048;-81
2023/06/01 06:54:24;;;;;;;11.93;5.05;;;;;;;14.68;80.88;101074.41;5091682;28;20448;-81
2023/06/01 06:56:51;;;;;;;8.90;4.97;;;;;;;14.63;79.19;101072.78;5086387;28;20067;-81
2023/06/01 06:59:18;;;;;;;11.38;4.40;;;;;;;14.73;80.08;101068.03;5078484;28;20044;-81
2023/06/01 07:01:44;;;;;;;12.82;5.22;;;;;;;14.72;79.08;101071.63;5062807;28;20272;-81
2023/06/01 07:04:11;;;;;;;11.35;4.50;;;;;;;14.89;78.58;101069.31;5091321;28;20042;-80
2023/06/01 07:06:38;;;;;;;6.80;4.40;;;;;;;14.96;78.17;101069.94;5075445;28;20127;-81
2023/06/01 07:09:05;;;;;;;6.15;4.18;;;;;;;15.02;77.57;101069.75;5084290;27;20561;-80
2023/06/01 07:11:32;;;;;;;8.95;4.32;;;;;;;15.13;76.07;101075.63;5071107;28;20504;-82
2023/06/01 07:13:59;;;;;;;8.68;4.18;;;;;;;15.14;77.55;101077.38;5080257;28;20465;-80
2023/06/01 07:16:26;;;;;;;15.48;5.03;;;;;;;15.19;74.79;101083.38;5075318;28;20440;-80
2023/06/01 07:18:53;;;;;;;6.35;4.22;;;;;;;14.99;74.26;101084.97;5073029;28;20082;-81
2023/06/01 07:21:20;;;;;;;12.30;4.32;;;;;;;14.83;76.00;101072.16;5067837;28;20050;-81
2023/06/01 07:23:47;;;;;;;10.68;4.25;;;;;;;14.94;75.31;101077.13;5071823;28;20036;-81
2023/06/01 07:26:13;;;;;;;6.57;4.00;;;;;;;15.01;74.77;101078.66;5105242;27;20032;-82
2023/06/01 07:28:41;;;;;;;5.88;3.72;;;;;;;15.01;73.24;101078.66;5066771;28;20078;-80
2023/06/01 07:31:08;;;;;;;8.95;4.40;;;;;;;15.27;75.18;101075.16;5095568;28;20050;-82
2023/06/01 07:33:38;;;;;;;6.82;4.00;;;;;;;15.84;70.22;101071.44;5094935;28;20063;-81
2023/06/01 07:36:06;;;;;;;7.72;4.18;;;;;;;16.48;66.63;101068.19;5072719;28;20062;-81
2023/06/01 07:38:33;;;;;;;6.45;3.65;;;;;;;16.30;64.03;101065.28;5053200;28;20051;-82
2023/06/01 07:41:00;;;;;;;6.05;3.55;;;;;;;16.73;61.87;101054.78;5083805;28;20050;-80
2023/06/01 07:43:27;;;;;;;5.72;3.40;;;;;;;17.10;62.11;101049.72;5082682;28;20042;-82
2023/06/01 07:45:54;;;;;;;6.90;3.55;;;;;;;17.08;60.04;101067.59;5099352;28;20458;-81
2023/06/01 07:48:21;;;;;;;6.47;3.50;;;;;;;17.12;62.83;101063.00;5040207;28;20048;-82
2023/06/01 07:50:48;;;;;;;10.07;4.28;;;;;;;16.99;61.59;101061.78;5064361;28;20078;-81
2023/06/01 07:53:14;;;;;;;6.40;3.13;;;;;;;16.98;62.01;101070.69;5089963;28;20190;-80
2023/06/01 07:55:43;;;;;;;28.20;5.88;;;;;;;16.49;62.22;101075.28;5075725;28;20119;-81
2023/06/01 07:58:10;;;;;;;14.68;4.45;;;;;;;16.84;63.07;101066.78;5042147;28;20040;-81
2023/06/01 08:00:37;;;;;;;379.73;53.97;;;;;;;16.76;62.18;101079.56;5068173;28;20094;-79
2023/06/01 08:03:05;;;;;;;14.88;4.63;;;;;;;17.03;61.28;101069.59;5070927;28;20274;-81
2023/06/01 08:05:34;;;;;;;8.13;3.90;;;;;;;17.30;58.94;101072.03;5067247;28;20037;-80
2023/06/01 08:08:04;;;;;;;13.15;4.38;;;;;;;17.63;59.50;101056.38;5071194;28;20073;-81
2023/06/01 08:10:31;;;;;;;7.25;3.80;;;;;;;17.83;57.79;101061.78;5077683;28;20111;-81
2023/06/01 08:12:58;;;;;;;7.85;3.80;;;;;;;18.02;58.80;101066.31;5058840;28;20130;-80
2023/06/01 08:15:26;;;;;;;7.95;3.67;;;;;;;17.95;57.37;101069.25;5104870;28;20424;-82
2023/06/01 08:17:52;;;;;;;7.15;3.67;;;;;;;17.90;58.15;101065.91;5093234;28;20036;-80
2023/06/01 08:20:21;;;;;;;7.93;3.80;;;;;;;17.75;58.36;101066.59;5074912;28;20051;-80
2023/06/01 08:22:48;;;;;;;15.68;4.45;;;;;;;17.55;58.31;101062.06;5063183;28;20039;-80
2023/06/01 08:25:15;;;;;;;7.05;3.83;;;;;;;17.34;59.87;101071.88;5071460;28;20492;-81
2023/06/01 08:27:43;;;;;;;7.82;3.88;;;;;;;17.31;58.99;101069.31;5061306;28;20092;-80
2023/06/01 08:30:11;;;;;;;9.07;3.53;;;;;;;17.44;58.92;101067.88;5101441;28;20477;-81
2023/06/01 08:32:38;;;;;;;8.07;3.80;;;;;;;17.72;58.41;101067.56;5085924;28;20382;-81
2023/06/01 08:35:08;;;;;;;7.78;3.92;;;;;;;17.77;57.26;101059.38;5052010;28;20107;-80
2023/06/01 08:37:37;;;;;;;5.53;3.47;;;;;;;17.64;58.26;101066.13;5058941;28;20234;-80
2023/06/01 08:40:07;;;;;;;9.77;3.40;;;;;;;17.72;58.31;101064.03;5065304;28;20050;-82
2023/06/01 08:42:40;;;;;;;10.27;3.92;;;;;;;18.03;54.68;101068.03;5063164;28;20218;-82
2023/06/01 08:45:07;;;;;;;13.02;3.67;;;;;;;18.57;54.87;101067.28;5093009;28;20043;-82
2023/06/01 08:47:36;;;;;;;6.05;2.90;;;;;;;18.08;53.95;101058.88;5067945;28;20306;-82
2023/06/01 08:50:03;;;;;;;56.20;9.95;;;;;;;18.68;53.45;101064.16;5069768;27;20043;-80
2023/06/01 08:52:31;;;;;;;7.47;3.72;;;;;;;18.70;53.17;101052.44;5063372;28;20064;-81
2023/06/01 08:55:00;;;;;;;7.00;3.33;;;;;;;19.02;50.82;101053.56;5066064;28;20457;-80
2023/06/01 08:57:27;;;;;;;6.50;3.03;;;;;;;19.34;51.12;101053.75;5066163;28;20049;-81
2023/06/01 08:59:55;;;;;;;7.55;3.47;;;;;;;19.09;49.67;101044.28;5080158;28;20051;-81
2023/06/01 09:02:23;;;;;;;4.78;3.38;;;;;;;19.37;51.03;101056.28;5086986;28;20085;-81
2023/06/01 09:04:50;;;;;;;8.32;3.80;;;;;;;19.26;49.41;101054.16;5090473;28;20039;-82
2023/06/01 09:07:18;;;;;;;8.15;4.05;;;;;;;19.03;50.77;101046.38;5067386;28;20055;-81
2023/06/01 09:09:45;;;;;;;7.68;3.42;;;;;;;18.79;49.37;101043.09;5092063;28;20046;-80
2023/06/01 09:12:29;;;;;;;5.68;3.22;;;;;;;19.18;51.37;101042.09;5065081;28;20040;-81
2023/06/01 09:15:18;;;;;;;9.20;3.75;;;;;;;19.30;50.15;101044.13;5071712;28;20028;-81
2023/06/01 09:17:47;;;;;;;8.23;3.55;;;;;;;19.82;49.22;101041.47;5081021;28;20048;-80
2023/06/01 09:20:25;;;;;;;7.30;3.35;;;;;;;19.82;47.56;101036.09;5056657;28;20043;-80
2023/06/01 09:22:52;;;;;;;5.60;3.70;;;;;;;19.45;49.34;101051.41;5085026;28;20118;-79
2023/06/01 09:25:31;;;;;;;5.03;3.45;;;;;;;19.64;48.10;101041.47;5090427;28;20042;-80
2023/06/01 09:28:00;;;;;;;7.13;3.42;;;;;;;19.90;47.97;101036.56;5062654;28;20046;-81
2023/06/01 09:30:47;;;;;;;5.07;3.00;;;;;;;20.21;47.70;101028.59;5073426;28;20047;-80
2023/06/01 09:33:20;;;;;;;5.97;3.22;;;;;;;20.36;47.48;101039.44;5099626;28;20043;-83
2023/06/01 09:35:50;;;;;;;5.90;2.92;;;;;;;20.72;45.86;101024.00;5088397;28;20036;-80
2023/06/01 09:38:24;;;;;;;7.13;3.33;;;;;;;20.43;46.39;101022.97;5075232;28;20047;-82
2023/06/01 09:41:02;;;;;;;5.25;3.20;;;;;;;20.57;46.75;101026.69;5064692;28;20089;-80
2023/06/01 09:43:29;;;;;;;7.90;3.30;;;;;;;20.41;46.19;101024.81;5075467;28;20040;-81
2023/06/01 09:46:11;;;;;;;18.02;4.97;;;;;;;19.79;47.15;101025.56;5071360;28;20454;-81
2023/06/01 09:48:38;;;;;;;7.00;3.85;;;;;;;20.09;47.25;101023.88;5076185;28;20039;-81
2023/06/01 09:51:05;;;;;;;5.85;3.50;;;;;;;20.40;46.74;101017.72;5066701;28;20509;-80
2023/06/01 09:53:41;;;;;;;3.53;2.50;;;;;;;20.60;45.48;101019.34;5079763;28;20131;-80
2023/06/01 09:56:08;;;;;;;4.97;3.53;;;;;;;20.49;45.34;101001.13;5050869;28;20032;-81
2023/06/01 09:58:39;;;;;;;7.30;3.38;;;;;;;20.46;44.96;101001.31;5081856;28;20043;-80
2023/06/01 10:01:10;;;;;;;7.90;3.00;;;;;;;20.87;45.48;101016.03;5087908;28;20028;-80
2023/06/01 10:03:44;;;;;;;14.32;3.92;;;;;;;20.96;44.38;101012.81;5065977;28;20394;-81
2023/06/01 10:06:12;;;;;;;8.35;4.00;;;;;;;21.02;43.69;101005.25;5088755;28;20454;-80
2023/06/01 10:08:38;;;;;;;7.90;3.58;;;;;;;21.04;43.82;101006.03;5062510;28;20743;-80
2023/06/01 10:11:07;;;;;;;6.53;3.70;;;;;;;21.07;43.48;101002.28;5069428;28;20050;-81
2023/06/01 10:13:35;;;;;;;5.68;2.53;;;;;;;21.13;43.83;101009.13;5062977;28;20032;-81
2023/06/01 10:16:03;;;;;;;5.60;3.42;;;;;;;20.45;45.26;101001.41;5059611;28;20046;-81
2023/06/01 10:18:31;;;;;;;8.93;4.07;;;;;;;20.27;44.77;101003.25;5068711;28;20051;-81
2023/06/01 10:20:58;;;;;;;5.00;3.40;;;;;;;19.93;45.42;100998.88;5041647;28;20386;-81
2023/06/01 10:23:25;;;;;;;27.75;5.35;;;;;;;20.45;45.23;100996.03;5100667;28;20039;-80
2023/06/01 10:26:00;;;;;;;7.70;3.13;;;;;;;20.82;44.33;100991.25;5072162;28;20039;-80
2023/06/01 10:28:30;;;;;;;6.25;2.85;;;;;;;21.21;43.13;101001.47;5086791;28;20040;-80
2023/06/01 10:31:35;;;;;;;4.93;3.33;;;;;;;21.07;43.54;100991.53;5089853;28;20086;-80
2023/06/01 10:34:03;;;;;;;5.72;3.00;;;;;;;20.16;45.22;100990.41;5067432;28;20044;-80
2023/06/01 10:36:51;;;;;;;5.53;3.08;;;;;;;20.66;44.73;100978.69;5053777;28;20147;-81
2023/06/01 10:39:25;;;;;;;4.30;2.88;;;;;;;20.76;44.28;100984.41;5106716;28;20151;-80
2023/06/01 10:41:53;;;;;;;5.97;3.40;;;;;;;21.29;43.94;100975.91;5082928;28;20044;-82
2023/06/01 10:44:38;;;;;;;5.28;3.15;;;;;;;21.08;42.98;100975.31;5053094;28;20290;-80
2023/06/01 10:47:11;;;;;;;4.78;2.78;;;;;;;21.22;42.63;100976.34;5083032;28;20491;-78
2023/06/01 10:49:47;;;;;;;7.68;3.78;;;;;;;21.40;42.62;100971.72;5081617;28;20560;-79
2023/06/01 10:52:26;;;;;;;5.80;3.15;;;;;;;21.71;42.26;100966.19;5103315;28;20085;-81
2023/06/01 10:54:54;;;;;;;4.60;3.22;;;;;;;21.63;41.78;100963.13;5065140;28;20059;-81
2023/06/01 10:57:23;;;;;;;5.82;3.35;;;;;;;21.92;42.00;100962.16;5070118;28;20131;-80
2023/06/01 11:00:12;;;;;;;3.90;3.03;;;;;;;22.27;41.11;100956.38;5081916;28;20132;-79
2023/06/01 11:02:48;;;;;;;4.88;3.38;;;;;;;22.36;39.95;100954.91;5063469;28;20044;-79
2023/06/01 11:05:37;;;;;;;5.82;3.30;;;;;;;22.50;40.76;100945.94;5066702;28;20047;-80
2023/06/01 11:08:29;;;;;;;46.55;8.35;;;;;;;22.07;41.68;100944.22;5095240;28;20047;-79
2023/06/01 11:11:02;;;;;;;10.07;3.95;;;;;;;22.29;40.82;100949.09;5088065;28;20035;-80
2023/06/01 11:13:31;;;;;;;5.72;3.35;;;;;;;22.55;40.44;100950.06;5087782;28;20055;-80
2023/06/01 11:16:07;;;;;;;6.60;3.20;;;;;;;22.21;40.78;100940.63;5066640;28;20032;-80
2023/06/01 11:18:44;;;;;;;7.40;3.70;;;;;;;22.16;40.22;100940.06;5077722;28;20092;-80
2023/06/01 11:21:26;;;;;;;8.05;3.58;;;;;;;22.39;40.89;100943.97;5052331;28;20044;-81
2023/06/01 11:23:55;;;;;;;4.38;3.03;;;;;;;22.24;40.36;100929.66;5071740;28;20143;-81
2023/06/01 11:26:25;;;;;;;20.33;5.00;;;;;;;22.33;40.65;100945.22;5049545;28;20058;-78
2023/06/01 11:28:53;;;;;;;5.53;3.03;;;;;;;22.35;41.02;100948.66;5058068;28;20501;-79
2023/06/01 11:31:21;;;;;;;7.65;3.42;;;;;;;22.55;40.48;100933.06;5085660;28;20312;-80
2023/06/01 11:33:52;;;;;;;4.53;3.05;;;;;;;22.41;39.66;100934.81;5070447;28;20143;-80
2023/06/01 11:36:23;;;;;;;10.20;3.85;;;;;;;22.65;40.23;100921.56;5064421;28;20064;-80
2023/06/01 11:38:51;;;;;;;6.45;3.45;;;;;;;22.92;40.54;100926.09;5070367;28;20032;-80
2023/06/01 11:41:22;;;;;;;13.43;4.00;;;;;;;23.11;39.79;100910.38;5070692;28;20062;-79
2023/06/01 11:43:56;;;;;;;5.03;3.08;;;;;;;23.29;39.75;100919.91;5094638;28;20046;-80
2023/06/01 11:46:23;;;;;;;5.15;3.08;;;;;;;23.40;38.22;100905.69;5053840;28;20044;-81
2023/06/01 11:49:01;;;;;;;7.40;3.40;;;;;;;23.26;38.53;100909.31;5068869;28;20047;-80
2023/06/01 11:51:30;;;;;;;6.60;3.53;;;;;;;22.96;39.32;100898.84;5074685;28;20047;-82
2023/06/01 11:54:00;;;;;;;7.82;3.45;;;;;;;22.97;39.73;100907.78;5064090;28;20507;-80